Time;durP1;ratioP1;P1;durP2;ratioP2;P2;SDS_P1;SDS_P2;PMS_P1;PMS_P2;Temp;Humidity;BMP_temperature;BMP_pressure;BME280_temperature;BME280_humidity;BME280_pressure;Samples;Min_cycle;Max_cycle;Signal;HPM_P1;HPM_P2
2021/09/15 00:00:50;;;;;;;9.80;8.90;;;;;;;;;;5035233;28;20410;-48
2021/09/15 00:03:16;;;;;;;9.43;8.47;;;;;;;;;;5035491;28;20476;-49
2021/09/15 00:05:48;;;;;;;9.77;8.67;;;;;;;;;;5035322;28;20440;-49
2021/09/15 00:08:14;;;;;;;9.53;8.63;;;;;;;;;;5035360;28;20485;-48
2021/09/15 00:10:40;;;;;;;9.80;8.63;;;;;;;;;;5035155;28;20473;-46
2021/09/15 00:13:06;;;;;;;8.57;7.87;;;;;;;;;;5035312;28;20479;-45
2021/09/15 00:15:32;;;;;;;9.57;8.67;;;;;;;;;;5035036;28;20474;-45
2021/09/15 00:17:58;;;;;;;9.40;7.80;;;;;;;;;;5035361;28;20443;-45
2021/09/15 00:20:24;;;;;;;13.20;8.70;;;;;;;;;;5035114;28;20511;-45
2021/09/15 00:22:50;;;;;;;9.73;8.90;;;;;;;;;;5035112;28;20467;-46
2021/09/15 00:25:16;;;;;;;10.27;8.87;;;;;;;;;;5035016;28;20962;-45
2021/09/15 00:27:42;;;;;;;10.97;9.00;;;;;;;;;;5034864;28;21045;-46
2021/09/15 00:30:09;;;;;;;15.30;9.03;;;;;;;;;;5034863;28;20417;-45
2021/09/15 00:32:37;;;;;;;11.40;9.30;;;;;;;;;;5034883;28;20397;-45
2021/09/15 00:35:06;;;;;;;10.13;9.10;;;;;;;;;;5034956;28;20409;-45
2021/09/15 00:37:32;;;;;;;10.20;9.20;;;;;;;;;;5034909;28;20457;-45
2021/09/15 00:39:57;;;;;;;13.53;9.50;;;;;;;;;;5034614;28;20407;-45
2021/09/15 00:42:23;;;;;;;9.70;8.43;;;;;;;;;;5034570;28;20416;-45
2021/09/15 00:44:50;;;;;;;9.67;8.67;;;;;;;;;;5034227;28;20756;-45
2021/09/15 00:47:16;;;;;;;11.00;9.90;;;;;;;;;;5034426;28;20491;-46
2021/09/15 00:49:42;;;;;;;9.70;8.77;;;;;;;;;;5034444;28;20501;-46
2021/09/15 00:52:08;;;;;;;12.43;9.30;;;;;;;;;;5034579;28;20494;-45
2021/09/15 00:54:34;;;;;;;11.50;9.53;;;;;;;;;;5034490;28;20402;-47
2021/09/15 00:57:00;;;;;;;10.70;9.43;;;;;;;;;;5034488;28;20422;-48
2021/09/15 00:59:26;;;;;;;10.93;9.83;;;;;;;;;;5034327;28;20409;-48
2021/09/15 01:01:52;;;;;;;10.57;9.57;;;;;;;;;;5033802;28;20927;-49
2021/09/15 01:04:18;;;;;;;13.53;9.23;;;;;;;;;;5034018;28;20408;-46
2021/09/15 01:06:44;;;;;;;11.90;9.67;;;;;;;;;;5033803;28;20970;-46
2021/09/15 01:09:11;;;;;;;9.97;8.83;;;;;;;;;;5034218;28;20409;-45
2021/09/15 01:11:38;;;;;;;10.83;9.80;;;;;;;;;;5034209;28;20463;-45
2021/09/15 01:14:04;;;;;;;15.40;10.30;;;;;;;;;;5034279;28;20402;-45
2021/09/15 01:16:49;;;;;;;10.20;9.20;;;;;;;;;;5033834;28;20443;-45
2021/09/15 01:19:15;;;;;;;10.83;9.77;;;;;;;;;;5034100;28;20455;-45
2021/09/15 01:21:41;;;;;;;12.73;9.30;;;;;;;;;;5033836;28;20406;-45
2021/09/15 01:24:07;;;;;;;11.50;9.97;;;;;;;;;;5033948;28;20406;-45
2021/09/15 01:26:37;;;;;;;14.23;12.83;;;;;;;;;;5033925;28;20421;-45
2021/09/15 01:29:03;;;;;;;10.97;9.87;;;;;;;;;;5033862;28;20756;-45
2021/09/15 01:31:29;;;;;;;12.43;10.60;;;;;;;;;;5033729;28;20398;-45
2021/09/15 01:33:55;;;;;;;11.93;10.00;;;;;;;;;;5033901;28;20405;-45
2021/09/15 01:36:21;;;;;;;11.50;10.20;;;;;;;;;;5033772;28;20941;-45
2021/09/15 01:38:47;;;;;;;10.20;9.30;;;;;;;;;;5033711;28;20440;-46
2021/09/15 01:41:13;;;;;;;10.33;9.37;;;;;;;;;;5033513;28;20405;-46
2021/09/15 01:43:39;;;;;;;10.67;9.57;;;;;;;;;;5033678;28;20401;-46
2021/09/15 01:46:05;;;;;;;11.30;9.57;;;;;;;;;;5033508;28;20921;-46
2021/09/15 01:48:31;;;;;;;10.93;9.83;;;;;;;;;;5033568;28;20457;-46
2021/09/15 01:50:57;;;;;;;10.77;9.70;;;;;;;;;;5033208;28;20965;-47
2021/09/15 01:53:23;;;;;;;11.40;9.50;;;;;;;;;;5033468;28;20957;-49
2021/09/15 01:55:49;;;;;;;9.90;9.00;;;;;;;;;;5033355;28;20776;-46
2021/09/15 01:58:15;;;;;;;5.73;5.30;;;;;;;;;;5015482;28;20417;-46
2021/09/15 02:00:41;;;;;;;11.70;10.60;;;;;;;;;;5033094;28;20410;-46
2021/09/15 02:03:07;;;;;;;10.37;9.50;;;;;;;;;;5033196;28;20405;-45
2021/09/15 02:05:33;;;;;;;11.13;9.53;;;;;;;;;;5033113;28;20424;-45
2021/09/15 02:07:59;;;;;;;10.97;9.83;;;;;;;;;;5033346;28;20987;-45
2021/09/15 02:10:25;;;;;;;11.27;9.93;;;;;;;;;;5032937;28;20918;-46
2021/09/15 02:12:51;;;;;;;11.23;9.97;;;;;;;;;;5033015;28;20904;-47
2021/09/15 02:15:16;;;;;;;11.63;9.93;;;;;;;;;;5032848;28;20478;-48
2021/09/15 02:17:42;;;;;;;11.77;9.30;;;;;;;;;;5033068;28;20413;-45
2021/09/15 02:20:09;;;;;;;13.47;10.43;;;;;;;;;;5032841;28;20417;-45
2021/09/15 02:22:35;;;;;;;12.47;11.20;;;;;;;;;;5032765;28;20755;-47
2021/09/15 02:25:06;;;;;;;10.23;9.33;;;;;;;;;;5032918;28;20966;-45
2021/09/15 02:27:32;;;;;;;10.50;9.53;;;;;;;;;;5032636;28;20484;-45
2021/09/15 02:29:58;;;;;;;11.70;10.60;;;;;;;;;;5032639;28;20909;-47
2021/09/15 02:32:25;;;;;;;14.40;10.47;;;;;;;;;;5032623;28;20390;-46
2021/09/15 02:34:51;;;;;;;9.80;8.83;;;;;;;;;;5032659;28;20414;-45
2021/09/15 02:37:17;;;;;;;10.33;9.43;;;;;;;;;;5032584;28;20422;-45
2021/09/15 02:39:42;;;;;;;13.27;9.57;;;;;;;;;;5032447;28;20405;-46
2021/09/15 02:42:09;;;;;;;11.57;10.57;;;;;;;;;;5032562;28;20741;-45
2021/09/15 02:44:35;;;;;;;10.73;9.73;;;;;;;;;;5032527;28;20449;-47
2021/09/15 02:47:01;;;;;;;11.10;10.10;;;;;;;;;;5032279;28;20894;-49
2021/09/15 02:49:28;;;;;;;12.93;10.50;;;;;;;;;;5032155;28;20413;-49
2021/09/15 02:51:54;;;;;;;10.87;9.87;;;;;;;;;;5032371;28;20400;-45
2021/09/15 02:54:20;;;;;;;11.10;10.10;;;;;;;;;;5032398;28;20402;-45
2021/09/15 02:56:46;;;;;;;10.00;9.20;;;;;;;;;;5032295;28;20424;-45
2021/09/15 02:59:12;;;;;;;10.83;9.50;;;;;;;;;;5032218;28;20408;-45
2021/09/15 03:01:38;;;;;;;10.87;9.40;;;;;;;;;;5031991;28;20400;-45
2021/09/15 03:04:04;;;;;;;12.00;10.70;;;;;;;;;;5032137;28;20409;-45
2021/09/15 03:06:30;;;;;;;10.27;9.30;;;;;;;;;;5032029;28;20420;-46
2021/09/15 03:08:56;;;;;;;11.60;10.10;;;;;;;;;;5031512;28;20494;-46
2021/09/15 03:11:22;;;;;;;10.67;9.57;;;;;;;;;;5031834;28;20398;-49
2021/09/15 03:13:48;;;;;;;10.90;9.33;;;;;;;;;;5032061;28;20476;-48
2021/09/15 03:16:15;;;;;;;15.03;9.40;;;;;;;;;;5031873;28;20532;-49
2021/09/15 03:18:41;;;;;;;16.13;10.90;;;;;;;;;;5031953;28;20471;-45
2021/09/15 03:21:07;;;;;;;10.60;9.50;;;;;;;;;;5031709;28;20924;-48
2021/09/15 03:23:33;;;;;;;12.80;10.80;;;;;;;;;;5032010;28;20913;-48
2021/09/15 03:25:59;;;;;;;16.90;11.20;;;;;;;;;;5031967;28;20446;-49
2021/09/15 03:28:25;;;;;;;16.83;10.43;;;;;;;;;;5031804;28;20516;-48
2021/09/15 03:30:51;;;;;;;10.80;9.90;;;;;;;;;;5031588;28;20407;-45
2021/09/15 03:33:17;;;;;;;11.93;10.73;;;;;;;;;;5031854;28;20410;-45
2021/09/15 03:35:43;;;;;;;12.90;11.67;;;;;;;;;;5031777;28;20511;-44
2021/09/15 03:38:09;;;;;;;15.47;10.70;;;;;;;;;;5031956;28;20963;-45
2021/09/15 03:40:35;;;;;;;10.87;9.23;;;;;;;;;;5031580;28;20415;-48
2021/09/15 03:43:01;;;;;;;11.93;10.80;;;;;;;;;;5031698;28;20413;-45
2021/09/15 03:45:27;;;;;;;12.60;11.23;;;;;;;;;;5031691;28;20520;-45
2021/09/15 03:47:53;;;;;;;11.53;10.43;;;;;;;;;;5031559;28;20457;-45
2021/09/15 03:50:19;;;;;;;15.10;10.70;;;;;;;;;;5031477;28;20496;-47
2021/09/15 03:52:45;;;;;;;12.87;11.57;;;;;;;;;;5031598;28;20448;-45
2021/09/15 03:55:11;;;;;;;12.33;10.90;;;;;;;;;;5031566;28;20427;-46
2021/09/15 03:57:37;;;;;;;15.30;12.83;;;;;;;;;;5031669;28;20405;-46
2021/09/15 04:00:03;;;;;;;13.70;11.43;;;;;;;;;;5031456;28;20744;-45
2021/09/15 04:02:29;;;;;;;12.83;11.53;;;;;;;;;;5031256;28;20967;-49
2021/09/15 04:04:55;;;;;;;13.80;11.93;;;;;;;;;;5031517;28;20411;-45
2021/09/15 04:07:21;;;;;;;12.47;10.37;;;;;;;;;;5031431;28;20487;-45
2021/09/15 04:09:47;;;;;;;11.83;10.70;;;;;;;;;;5031415;28;20405;-45
2021/09/15 04:12:13;;;;;;;13.10;11.93;;;;;;;;;;5031364;28;20901;-46
2021/09/15 04:14:41;;;;;;;15.00;11.53;;;;;;;;;;5031464;28;20401;-45
2021/09/15 04:17:07;;;;;;;14.27;11.43;;;;;;;;;;5031928;28;20476;-46
2021/09/15 04:19:33;;;;;;;12.30;11.10;;;;;;;;;;5032200;28;20448;-45
2021/09/15 04:21:59;;;;;;;13.73;12.33;;;;;;;;;;5034982;28;20432;-46
2021/09/15 04:31:12;;;;;;;13.43;12.10;;;;;;;;;;5035161;28;20424;-47
2021/09/15 04:33:00;;;;;;;13.70;12.20;;;;;;;;;;5034920;28;20938;-45
2021/09/15 04:35:26;;;;;;;12.40;11.17;;;;;;;;;;5034851;28;20425;-47
2021/09/15 04:37:52;;;;;;;13.43;12.20;;;;;;;;;;5034843;28;20413;-45
2021/09/15 04:40:18;;;;;;;13.13;11.77;;;;;;;;;;5034663;28;20414;-47
2021/09/15 04:42:44;;;;;;;13.27;12.03;;;;;;;;;;5034654;28;20402;-48
2021/09/15 04:45:10;;;;;;;11.77;10.67;;;;;;;;;;5035082;28;20408;-49
2021/09/15 04:47:36;;;;;;;12.40;10.63;;;;;;;;;;5034491;28;20903;-49
2021/09/15 04:50:02;;;;;;;13.93;12.43;;;;;;;;;;5034409;28;20812;-45
2021/09/15 04:52:28;;;;;;;13.03;11.70;;;;;;;;;;5034610;28;20409;-45
2021/09/15 04:54:54;;;;;;;13.87;12.47;;;;;;;;;;5034581;28;20403;-45
2021/09/15 04:57:20;;;;;;;12.63;11.27;;;;;;;;;;5034445;28;20472;-45
2021/09/15 04:59:46;;;;;;;13.40;12.00;;;;;;;;;;5034176;28;20401;-45
2021/09/15 05:02:12;;;;;;;15.30;12.83;;;;;;;;;;5034261;28;20409;-45
2021/09/15 05:04:38;;;;;;;15.47;12.80;;;;;;;;;;5034310;28;20475;-45
2021/09/15 05:07:04;;;;;;;14.27;12.83;;;;;;;;;;5034177;28;20446;-47
2021/09/15 05:09:30;;;;;;;14.00;12.70;;;;;;;;;;5034385;28;20489;-46
2021/09/15 05:11:56;;;;;;;13.80;12.50;;;;;;;;;;5034045;28;20824;-47
2021/09/15 05:14:22;;;;;;;13.97;12.43;;;;;;;;;;5034229;28;20747;-46
2021/09/15 05:16:48;;;;;;;14.67;13.17;;;;;;;;;;5033951;28;20474;-45
2021/09/15 05:19:14;;;;;;;16.50;13.50;;;;;;;;;;5034165;28;20444;-45
2021/09/15 05:21:40;;;;;;;14.43;12.33;;;;;;;;;;5033813;28;20412;-45
2021/09/15 05:24:06;;;;;;;19.17;13.57;;;;;;;;;;5034037;28;20409;-45
2021/09/15 05:26:32;;;;;;;15.20;13.50;;;;;;;;;;5033951;28;20428;-45
2021/09/15 05:28:58;;;;;;;14.77;13.27;;;;;;;;;;5033971;28;20490;-45
2021/09/15 05:31:24;;;;;;;15.27;13.73;;;;;;;;;;5033056;28;20404;-47
2021/09/15 05:33:49;;;;;;;17.80;13.80;;;;;;;;;;5033868;28;20489;-47
2021/09/15 05:36:15;;;;;;;20.60;14.47;;;;;;;;;;5033846;28;20478;-49
2021/09/15 05:38:41;;;;;;;19.63;15.17;;;;;;;;;;5033840;28;21114;-45
2021/09/15 05:41:07;;;;;;;17.40;14.73;;;;;;;;;;5033450;28;20447;-45
2021/09/15 05:43:34;;;;;;;17.20;15.47;;;;;;;;;;5033741;28;20417;-46
2021/09/15 05:46:00;;;;;;;19.93;14.87;;;;;;;;;;5033488;28;20430;-45
2021/09/15 05:48:26;;;;;;;16.87;15.27;;;;;;;;;;5033415;28;20947;-45
2021/09/15 05:50:52;;;;;;;17.60;15.60;;;;;;;;;;5033255;28;20406;-45
2021/09/15 05:53:18;;;;;;;20.37;16.50;;;;;;;;;;5033433;28;20404;-45
2021/09/15 05:55:44;;;;;;;18.07;15.43;;;;;;;;;;5033413;28;20429;-45
2021/09/15 05:58:10;;;;;;;16.90;15.20;;;;;;;;;;5033513;28;20408;-45
2021/09/15 06:00:36;;;;;;;26.93;18.00;;;;;;;;;;5033099;28;20416;-44
2021/09/15 06:03:02;;;;;;;17.67;15.83;;;;;;;;;;5033372;28;20501;-46
2021/09/15 06:05:28;;;;;;;16.40;14.60;;;;;;;;;;5033201;28;20423;-46
2021/09/15 06:07:54;;;;;;;18.27;15.47;;;;;;;;;;5033168;28;20446;-49
2021/09/15 06:10:20;;;;;;;18.90;16.10;;;;;;;;;;5033017;28;20433;-48
2021/09/15 06:12:46;;;;;;;23.57;18.37;;;;;;;;;;5033136;28;20427;-46
2021/09/15 06:15:12;;;;;;;19.30;17.30;;;;;;;;;;5032974;28;20898;-45
2021/09/15 06:17:38;;;;;;;16.73;15.13;;;;;;;;;;5032947;28;20420;-46
2021/09/15 06:20:04;;;;;;;17.90;16.10;;;;;;;;;;5032743;28;20407;-45
2021/09/15 06:22:30;;;;;;;19.07;15.93;;;;;;;;;;5032874;28;20404;-46
2021/09/15 06:24:58;;;;;;;18.20;16.40;;;;;;;;;;5032927;28;20408;-46
2021/09/15 06:27:24;;;;;;;19.37;16.60;;;;;;;;;;5032686;28;20460;-45
2021/09/15 06:29:50;;;;;;;17.67;14.87;;;;;;;;;;5032613;28;20861;-45
2021/09/15 06:32:20;;;;;;;18.40;14.93;;;;;;;;;;5032685;28;20809;-45
2021/09/15 06:34:46;;;;;;;16.60;15.00;;;;;;;;;;5032695;28;20778;-47
2021/09/15 06:37:14;;;;;;;18.00;16.20;;;;;;;;;;5032637;28;20467;-46
2021/09/15 06:39:40;;;;;;;18.27;16.23;;;;;;;;;;5032670;28;20407;-48
2021/09/15 06:42:06;;;;;;;19.93;17.23;;;;;;;;;;5032319;28;20435;-45
2021/09/15 06:44:32;;;;;;;18.27;16.40;;;;;;;;;;5031721;28;20410;-45
2021/09/15 06:46:58;;;;;;;19.10;16.50;;;;;;;;;;5032270;28;20461;-45
2021/09/15 06:49:24;;;;;;;22.40;16.50;;;;;;;;;;5032398;28;20400;-46
2021/09/15 06:51:50;;;;;;;17.23;15.40;;;;;;;;;;5032133;28;20404;-46
2021/09/15 06:54:16;;;;;;;16.60;14.80;;;;;;;;;;5032408;28;20766;-46
2021/09/15 06:56:42;;;;;;;17.00;15.23;;;;;;;;;;5032220;28;20423;-45
2021/09/15 06:59:08;;;;;;;19.63;16.73;;;;;;;;;;5032364;28;20405;-46
2021/09/15 07:01:33;;;;;;;18.03;15.30;;;;;;;;;;5032035;28;20402;-47
2021/09/15 07:03:59;;;;;;;18.77;15.20;;;;;;;;;;5032344;28;20485;-47
2021/09/15 07:06:25;;;;;;;16.60;13.47;;;;;;;;;;5032182;28;20418;-48
2021/09/15 07:08:52;;;;;;;17.30;15.03;;;;;;;;;;5032009;28;20507;-45
2021/09/15 07:11:18;;;;;;;15.60;14.10;;;;;;;;;;5031858;28;20409;-48
2021/09/15 07:13:44;;;;;;;15.37;13.67;;;;;;;;;;5032097;28;20401;-47
2021/09/15 07:16:10;;;;;;;15.10;13.73;;;;;;;;;;5031817;28;20458;-49
2021/09/15 07:18:36;;;;;;;15.93;14.10;;;;;;;;;;5032123;28;20910;-45
2021/09/15 07:21:02;;;;;;;19.50;14.67;;;;;;;;;;5031852;28;20409;-45
2021/09/15 07:23:28;;;;;;;16.07;13.43;;;;;;;;;;5032073;28;20409;-45
2021/09/15 07:25:54;;;;;;;13.73;12.50;;;;;;;;;;5031834;28;20954;-45
2021/09/15 07:28:20;;;;;;;14.97;13.43;;;;;;;;;;5031961;28;20822;-46
2021/09/15 07:30:47;;;;;;;16.30;13.53;;;;;;;;;;5031710;28;20889;-45
2021/09/15 07:33:13;;;;;;;16.30;13.20;;;;;;;;;;5031959;28;20824;-45
2021/09/15 07:35:39;;;;;;;18.40;14.10;;;;;;;;;;5031888;28;20507;-45
2021/09/15 07:38:05;;;;;;;14.93;13.37;;;;;;;;;;5033237;28;20529;-46
2021/09/15 07:40:31;;;;;;;16.40;14.70;;;;;;;;;;5031544;28;20409;-45
2021/09/15 07:42:57;;;;;;;18.33;14.47;;;;;;;;;;5031643;28;20406;-45
2021/09/15 07:45:23;;;;;;;19.93;14.40;;;;;;;;;;5031601;28;20408;-45
2021/09/15 07:47:49;;;;;;;18.57;13.23;;;;;;;;;;5031745;28;20452;-45
2021/09/15 07:50:15;;;;;;;14.43;12.87;;;;;;;;;;5031401;28;20416;-45
2021/09/15 07:52:41;;;;;;;15.93;13.23;;;;;;;;;;5031689;28;20445;-46
2021/09/15 07:55:07;;;;;;;14.13;11.60;;;;;;;;;;5033431;28;20397;-45
2021/09/15 07:57:34;;;;;;;13.93;11.27;;;;;;;;;;5035657;28;20417;-46
2021/09/15 08:00:00;;;;;;;13.43;10.90;;;;;;;;;;5035506;28;20406;-46
2021/09/15 08:02:26;;;;;;;12.10;9.73;;;;;;;;;;5035471;28;20417;-45
2021/09/15 08:04:52;;;;;;;10.10;9.17;;;;;;;;;;5035609;28;20398;-46
2021/09/15 08:07:18;;;;;;;10.40;8.33;;;;;;;;;;5035378;28;20799;-48
2021/09/15 08:09:44;;;;;;;10.13;8.30;;;;;;;;;;5035065;28;20406;-49
2021/09/15 08:12:10;;;;;;;15.47;9.23;;;;;;;;;;5033833;28;20414;-45
2021/09/15 08:14:36;;;;;;;9.53;8.23;;;;;;;;;;5035389;28;20408;-45
2021/09/15 08:17:02;;;;;;;9.03;8.10;;;;;;;;;;5035126;28;20444;-46
2021/09/15 08:19:27;;;;;;;11.07;9.03;;;;;;;;;;5035213;28;20407;-46
2021/09/15 08:21:54;;;;;;;8.90;8.10;;;;;;;;;;5034981;28;20470;-45
2021/09/15 08:24:20;;;;;;;11.73;8.30;;;;;;;;;;5035238;28;20436;-45
2021/09/15 08:26:46;;;;;;;8.80;7.07;;;;;;;;;;5035052;28;20768;-45
2021/09/15 08:29:12;;;;;;;8.53;7.33;;;;;;;;;;5035039;28;20475;-45
2021/09/15 08:31:38;;;;;;;9.00;8.10;;;;;;;;;;5033992;28;20401;-46
2021/09/15 08:34:04;;;;;;;7.50;6.80;;;;;;;;;;5034775;28;20406;-45
2021/09/15 08:36:30;;;;;;;7.97;7.27;;;;;;;;;;5034863;28;20428;-45
2021/09/15 08:38:56;;;;;;;8.73;7.83;;;;;;;;;;5034736;28;20441;-48
2021/09/15 08:41:22;;;;;;;8.37;7.47;;;;;;;;;;5034776;28;20401;-49
2021/09/15 08:43:48;;;;;;;8.57;6.87;;;;;;;;;;5034808;28;20416;-45
2021/09/15 08:46:17;;;;;;;8.80;8.07;;;;;;;;;;5034664;28;20512;-45
2021/09/15 08:48:45;;;;;;;9.73;7.40;;;;;;;;;;5034608;28;20452;-46
2021/09/15 08:51:13;;;;;;;7.90;7.20;;;;;;;;;;5034304;28;20485;-47
2021/09/15 08:53:39;;;;;;;7.90;7.20;;;;;;;;;;5034591;28;20874;-48
2021/09/15 08:56:05;;;;;;;10.60;7.40;;;;;;;;;;5034449;28;20436;-50
2021/09/15 08:58:31;;;;;;;7.37;6.60;;;;;;;;;;5034495;28;20410;-49
2021/09/15 09:01:07;;;;;;;7.20;6.60;;;;;;;;;;5034231;28;20416;-45
2021/09/15 09:03:37;;;;;;;8.83;6.60;;;;;;;;;;5034448;28;20504;-45
2021/09/15 09:06:10;;;;;;;8.07;7.27;;;;;;;;;;5033261;28;21283;-45
2021/09/15 09:08:38;;;;;;;8.67;7.87;;;;;;;;;;5034288;28;20453;-44
2021/09/15 09:11:05;;;;;;;8.10;7.37;;;;;;;;;;5033995;28;20407;-49
2021/09/15 09:13:30;;;;;;;8.03;7.00;;;;;;;;;;5034289;28;20401;-48
2021/09/15 09:15:56;;;;;;;7.93;7.23;;;;;;;;;;5034045;28;20802;-49
2021/09/15 09:18:22;;;;;;;8.60;7.80;;;;;;;;;;5034006;28;21053;-45
2021/09/15 09:20:48;;;;;;;10.20;8.20;;;;;;;;;;5034018;28;20832;-54
2021/09/15 09:23:16;;;;;;;9.17;7.90;;;;;;;;;;5034135;28;20403;-46
2021/09/15 09:25:50;;;;;;;8.80;7.97;;;;;;;;;;5034054;28;20429;-46
2021/09/15 09:28:30;;;;;;;11.20;9.73;;;;;;;;;;5033951;28;20881;-45
2021/09/15 09:31:06;;;;;;;8.80;7.97;;;;;;;;;;5033727;28;20436;-48
2021/09/15 09:33:33;;;;;;;10.77;9.07;;;;;;;;;;5034060;28;20834;-45
2021/09/15 09:36:07;;;;;;;9.93;8.87;;;;;;;;;;5033809;28;20432;-45
2021/09/15 09:38:36;;;;;;;11.37;9.60;;;;;;;;;;5033836;28;20769;-45
2021/09/15 09:41:15;;;;;;;10.90;9.87;;;;;;;;;;5033571;28;20409;-46
2021/09/15 09:43:55;;;;;;;12.60;10.50;;;;;;;;;;5033551;28;20438;-49
2021/09/15 09:46:28;;;;;;;10.73;9.73;;;;;;;;;;5033581;28;20426;-48
2021/09/15 09:48:56;;;;;;;11.33;10.30;;;;;;;;;;5033524;28;20922;-45
2021/09/15 09:51:25;;;;;;;9.87;8.87;;;;;;;;;;5033348;28;20424;-46
2021/09/15 09:53:51;;;;;;;11.03;9.93;;;;;;;;;;5033480;28;20494;-45
2021/09/15 09:56:17;;;;;;;9.60;8.80;;;;;;;;;;5033309;28;20429;-46
2021/09/15 09:58:45;;;;;;;10.77;9.30;;;;;;;;;;5033317;28;20402;-45
2021/09/15 10:01:15;;;;;;;9.67;8.47;;;;;;;;;;5032995;28;20398;-46
2021/09/15 10:03:41;;;;;;;9.80;8.90;;;;;;;;;;5033227;28;20438;-45
2021/09/15 10:06:07;;;;;;;10.20;9.30;;;;;;;;;;5033157;28;20492;-47
2021/09/15 10:08:35;;;;;;;11.20;8.53;;;;;;;;;;5032918;28;20945;-46
2021/09/15 10:11:01;;;;;;;11.27;10.23;;;;;;;;;;5032934;28;20742;-48
2021/09/15 10:13:27;;;;;;;9.90;9.00;;;;;;;;;;5033213;28;20425;-48
2021/09/15 10:15:57;;;;;;;10.50;9.50;;;;;;;;;;5032881;28;20438;-45
2021/09/15 10:18:24;;;;;;;10.60;8.97;;;;;;;;;;5033511;28;20413;-51
2021/09/15 10:20:54;;;;;;;10.63;9.63;;;;;;;;;;5037430;28;20432;-48
2021/09/15 10:23:33;;;;;;;11.00;10.00;;;;;;;;;;5033057;28;20820;-48
2021/09/15 10:25:59;;;;;;;9.97;9.17;;;;;;;;;;5032739;28;20429;-51
2021/09/15 10:28:25;;;;;;;10.23;9.33;;;;;;;;;;5032757;28;20792;-49
2021/09/15 10:30:52;;;;;;;10.60;9.50;;;;;;;;;;5032710;28;20413;-50
2021/09/15 10:33:36;;;;;;;10.10;9.30;;;;;;;;;;5032622;28;20398;-50
2021/09/15 10:36:03;;;;;;;10.10;9.20;;;;;;;;;;5032628;28;20784;-51
2021/09/15 10:38:47;;;;;;;14.87;9.33;;;;;;;;;;5032687;28;20455;-48
2021/09/15 10:41:35;;;;;;;10.97;9.97;;;;;;;;;;5032377;28;20437;-50
2021/09/15 10:44:05;;;;;;;9.07;8.20;;;;;;;;;;5032491;28;20409;-51
2021/09/15 10:46:31;;;;;;;10.40;8.73;;;;;;;;;;5032402;28;20469;-50
2021/09/15 10:49:16;;;;;;;9.37;8.47;;;;;;;;;;5032374;28;20464;-50
2021/09/15 10:51:42;;;;;;;12.33;9.10;;;;;;;;;;5032077;28;20402;-51
2021/09/15 10:54:34;;;;;;;9.23;8.20;;;;;;;;;;5032319;28;20394;-50
2021/09/15 10:57:19;;;;;;;7.97;7.27;;;;;;;;;;5028696;28;20841;-50
2021/09/15 10:59:53;;;;;;;8.50;7.60;;;;;;;;;;5032260;28;20894;-51
2021/09/15 11:02:35;;;;;;;8.30;7.43;;;;;;;;;;5032004;28;20444;-49
2021/09/15 11:05:21;;;;;;;8.50;7.70;;;;;;;;;;5032264;28;20409;-49
2021/09/15 11:07:47;;;;;;;8.43;6.87;;;;;;;;;;5032009;28;20458;-51
2021/09/15 11:10:34;;;;;;;7.33;6.73;;;;;;;;;;5032078;28;20402;-50
2021/09/15 11:13:00;;;;;;;7.50;6.73;;;;;;;;;;5031968;28;20397;-51
2021/09/15 11:15:27;;;;;;;8.30;7.50;;;;;;;;;;5031836;28;20783;-51
2021/09/15 11:17:53;;;;;;;7.33;6.00;;;;;;;;;;5032250;28;20406;-51
2021/09/15 11:20:20;;;;;;;7.67;6.87;;;;;;;;;;5031917;28;20406;-51
2021/09/15 11:22:47;;;;;;;7.03;6.43;;;;;;;;;;5031834;28;20398;-51
2021/09/15 11:25:20;;;;;;;7.70;7.00;;;;;;;;;;5031863;28;20405;-50
2021/09/15 11:28:05;;;;;;;7.13;6.53;;;;;;;;;;5032583;28;20990;-50
2021/09/15 11:30:31;;;;;;;7.10;6.40;;;;;;;;;;5030250;28;20411;-51
2021/09/15 11:33:00;;;;;;;10.97;6.73;;;;;;;;;;5031593;28;20406;-51
2021/09/15 11:35:26;;;;;;;7.17;6.00;;;;;;;;;;5031463;28;20417;-50
2021/09/15 11:37:52;;;;;;;6.73;6.13;;;;;;;;;;5031777;28;20966;-51
2021/09/15 11:40:26;;;;;;;8.00;6.37;;;;;;;;;;5031589;28;20485;-48
2021/09/15 11:42:52;;;;;;;7.47;6.60;;;;;;;;;;5031812;28;20425;-51
2021/09/15 11:45:23;;;;;;;9.63;6.20;;;;;;;;;;5031770;28;20436;-49
2021/09/15 11:47:53;;;;;;;5.43;5.03;;;;;;;;;;5031660;28;20986;-50
2021/09/15 11:50:23;;;;;;;5.37;4.97;;;;;;;;;;5031564;28;20459;-47
2021/09/15 11:53:02;;;;;;;6.00;5.60;;;;;;;;;;5031514;28;20398;-51
2021/09/15 11:55:30;;;;;;;5.17;4.77;;;;;;;;;;5031646;28;20509;-51
2021/09/15 11:58:03;;;;;;;5.80;5.40;;;;;;;;;;5031681;28;20398;-51
2021/09/15 12:00:32;;;;;;;5.07;4.60;;;;;;;;;;5031343;28;20398;-51
2021/09/15 12:03:05;;;;;;;4.70;4.40;;;;;;;;;;5031447;28;20406;-52
2021/09/15 12:05:31;;;;;;;5.90;5.40;;;;;;;;;;5031529;28;20955;-51
2021/09/15 12:07:57;;;;;;;5.63;5.13;;;;;;;;;;5031467;28;20449;-51
2021/09/15 12:10:25;;;;;;;4.47;4.17;;;;;;;;;;5031285;28;20770;-51
2021/09/15 12:12:52;;;;;;;5.00;4.70;;;;;;;;;;5031460;28;20833;-52
2021/09/15 12:15:18;;;;;;;5.50;5.00;;;;;;;;;;5031310;28;20509;-52
2021/09/15 12:17:58;;;;;;;4.90;4.50;;;;;;;;;;5031486;28;20405;-49
2021/09/15 12:20:43;;;;;;;5.23;4.77;;;;;;;;;;5031332;28;20413;-52
2021/09/15 12:23:12;;;;;;;4.47;4.17;;;;;;;;;;5031303;28;20817;-50
2021/09/15 12:25:38;;;;;;;4.93;4.63;;;;;;;;;;5031304;28;20781;-52
2021/09/15 12:28:06;;;;;;;6.03;5.53;;;;;;;;;;5031143;28;20495;-51
2021/09/15 12:30:34;;;;;;;5.47;5.00;;;;;;;;;;5031072;28;20436;-46
2021/09/15 12:33:01;;;;;;;5.60;5.10;;;;;;;;;;5031382;28;20405;-50
2021/09/15 12:35:33;;;;;;;4.00;3.80;;;;;;;;;;5031236;28;20413;-52
2021/09/15 12:38:03;;;;;;;5.10;4.70;;;;;;;;;;5031273;28;20407;-52
2021/09/15 12:40:30;;;;;;;5.10;4.70;;;;;;;;;;5030251;28;20407;-51
2021/09/15 12:42:58;;;;;;;4.80;4.40;;;;;;;;;;5038931;28;20460;-51
2021/09/15 12:45:25;;;;;;;6.47;5.20;;;;;;;;;;5034770;28;20414;-51
2021/09/15 12:47:51;;;;;;;4.70;4.40;;;;;;;;;;5034686;28;20441;-52
2021/09/15 12:50:17;;;;;;;5.13;4.73;;;;;;;;;;5034647;28;20411;-50
2021/09/15 12:52:44;;;;;;;4.93;4.63;;;;;;;;;;5034384;28;20832;-50
2021/09/15 12:55:18;;;;;;;5.30;5.00;;;;;;;;;;5034354;28;20409;-50
2021/09/15 12:57:54;;;;;;;6.00;5.03;;;;;;;;;;5034533;28;20394;-50
2021/09/15 13:00:21;;;;;;;5.33;4.93;;;;;;;;;;5034432;28;20410;-50
2021/09/15 13:02:51;;;;;;;7.20;6.67;;;;;;;;;;5034228;28;20898;-50
2021/09/15 13:05:17;;;;;;;8.23;7.27;;;;;;;;;;5034374;28;20434;-51
2021/09/15 13:07:43;;;;;;;7.87;7.17;;;;;;;;;;5034020;28;20902;-51
2021/09/15 13:10:10;;;;;;;8.00;7.30;;;;;;;;;;5034245;28;20406;-49
2021/09/15 13:12:36;;;;;;;9.73;8.40;;;;;;;;;;5031571;28;20487;-51
2021/09/15 13:15:04;;;;;;;9.67;8.87;;;;;;;;;;5032321;28;21196;-50
2021/09/15 13:17:30;;;;;;;9.63;8.70;;;;;;;;;;5032539;28;20528;-51
2021/09/15 13:19:56;;;;;;;10.73;8.30;;;;;;;;;;5032810;28;20402;-51
2021/09/15 13:22:22;;;;;;;9.90;9.03;;;;;;;;;;5033321;28;20410;-52
2021/09/15 13:24:48;;;;;;;10.70;9.00;;;;;;;;;;5034091;28;20404;-51
2021/09/15 13:27:14;;;;;;;9.70;8.80;;;;;;;;;;5034005;28;20452;-50
2021/09/15 13:29:41;;;;;;;16.20;9.60;;;;;;;;;;5033888;28;20751;-51
2021/09/15 13:32:11;;;;;;;12.03;10.93;;;;;;;;;;5032442;28;20418;-51
2021/09/15 13:34:37;;;;;;;14.43;11.20;;;;;;;;;;5033739;28;20488;-50
2021/09/15 13:37:03;;;;;;;10.63;9.73;;;;;;;;;;5033756;28;20434;-51
2021/09/15 13:39:30;;;;;;;11.33;10.43;;;;;;;;;;5033662;28;20430;-52
2021/09/15 13:41:57;;;;;;;11.00;10.10;;;;;;;;;;5032954;28;20404;-51
2021/09/15 13:44:23;;;;;;;12.60;11.50;;;;;;;;;;5031572;28;21048;-51
2021/09/15 13:46:49;;;;;;;12.00;11.00;;;;;;;;;;5030026;28;20453;-51
2021/09/15 13:49:15;;;;;;;12.63;10.70;;;;;;;;;;5033001;28;20418;-51
2021/09/15 13:51:44;;;;;;;12.20;10.90;;;;;;;;;;5033904;28;20430;-51
2021/09/15 13:54:10;;;;;;;11.70;10.70;;;;;;;;;;5021530;28;20460;-50
2021/09/15 13:56:37;;;;;;;11.83;10.80;;;;;;;;;;5032703;28;20490;-49
2021/09/15 13:59:02;;;;;;;10.10;9.17;;;;;;;;;;5033209;28;20415;-50
2021/09/15 14:01:28;;;;;;;13.30;11.37;;;;;;;;;;5032763;28;20822;-49
2021/09/15 14:03:54;;;;;;;10.90;9.70;;;;;;;;;;5053142;28;21029;-51
2021/09/15 14:06:20;;;;;;;11.27;10.17;;;;;;;;;;5053089;28;20431;-50
2021/09/15 14:08:46;;;;;;;10.77;9.60;;;;;;;;;;5053051;28;20458;-52
2021/09/15 14:11:13;;;;;;;10.73;9.83;;;;;;;;;;5053016;28;20399;-51
2021/09/15 14:13:39;;;;;;;11.17;10.07;;;;;;;;;;5053071;28;20519;-51
2021/09/15 14:16:05;;;;;;;11.00;9.70;;;;;;;;;;5048004;28;20496;-51
2021/09/15 14:18:31;;;;;;;16.50;10.90;;;;;;;;;;5052867;28;20400;-50
2021/09/15 14:20:57;;;;;;;17.23;10.10;;;;;;;;;;5052630;28;20873;-51
2021/09/15 14:23:23;;;;;;;12.33;11.17;;;;;;;;;;5053106;28;20957;-51
2021/09/15 14:25:49;;;;;;;12.10;11.07;;;;;;;;;;5048983;28;21171;-50
2021/09/15 14:28:15;;;;;;;11.17;10.10;;;;;;;;;;5052663;28;20484;-51
2021/09/15 14:30:42;;;;;;;10.17;9.13;;;;;;;;;;5052511;28;20402;-49
2021/09/15 14:33:08;;;;;;;12.47;8.93;;;;;;;;;;5052553;28;20500;-52
2021/09/15 14:35:34;;;;;;;8.53;7.77;;;;;;;;;;5052506;28;20425;-52